Time;durP1;ratioP1;P1;durP2;ratioP2;P2;SDS_P1;SDS_P2;PMS_P1;PMS_P2;Temp;Humidity;BMP_temperature;BMP_pressure;BME280_temperature;BME280_humidity;BME280_pressure;Samples;Min_cycle;Max_cycle;Signal;HPM_P1;HPM_P2
2024/04/23 00:00:12;;;;;;;;;;;;;;;-144.99;84.73;52486.81;5471115;26;19928;-68
2024/04/23 00:02:41;;;;;;;;;;;;;;;-144.99;84.62;52501.09;5481389;26;19932;-69
2024/04/23 00:05:07;;;;;;;;;;;;;;;-144.99;85.10;52517.41;5465421;26;19931;-68
2024/04/23 00:07:35;;;;;;;;;;;;;;;-144.99;84.88;52480.72;5476790;26;19972;-67
2024/04/23 00:10:04;;;;;;;;;;;;;;;-144.99;84.86;52492.94;5467835;26;19996;-67
2024/04/23 00:12:33;;;;;;;;;;;;;;;-144.99;84.96;52476.63;5482369;26;19932;-65
2024/04/23 00:14:58;;;;;;;;;;;;;;;-144.99;84.77;52488.84;5476362;26;19928;-63
2024/04/23 00:17:27;;;;;;;;;;;;;;;-144.99;85.32;52456.25;5471102;26;20265;-64
2024/04/23 00:19:53;;;;;;;;;;;;;;;-144.99;85.23;52468.47;5473789;26;19927;-63
2024/04/23 00:22:21;;;;;;;;;;;;;;;-144.99;85.72;52464.41;5479446;26;19935;-64
2024/04/23 00:24:47;;;;;;;;;;;;;;;-144.99;85.48;52521.47;5481279;26;20029;-64
2024/04/23 00:27:18;;;;;;;;;;;;;;;-144.99;85.75;52482.75;5471935;26;20248;-65
2024/04/23 00:29:44;;;;;;;;;;;;;;;-144.99;85.63;52507.19;5478677;26;19935;-64
2024/04/23 00:32:13;;;;;;;;;;;;;;;-144.99;85.59;52503.13;5482980;26;20523;-65
2024/04/23 00:34:39;;;;;;;;;;;;;;;-144.99;85.88;52472.56;5475718;26;19935;-65
2024/04/23 00:37:07;;;;;;;;;;;;;;;-144.99;86.00;52470.50;5459427;26;20001;-65
2024/04/23 00:39:33;;;;;;;;;;;;;;;-144.99;86.55;52505.16;5471548;26;19993;-67
2024/04/23 00:42:02;;;;;;;;;;;;;;;-144.99;86.51;52466.44;5473354;26;20548;-65
2024/04/23 00:44:33;;;;;;;;;;;;;;;-144.99;86.92;52501.09;5469345;26;19939;-65
2024/04/23 00:46:59;;;;;;;;;;;;;;;-144.99;86.88;52464.41;5459707;26;21839;-65
2024/04/23 00:49:27;;;;;;;;;;;;;;;-144.99;87.14;52480.72;5464300;26;19940;-65
2024/04/23 00:51:53;;;;;;;;;;;;;;;-144.99;87.25;52509.25;5469231;26;19928;-65
2024/04/23 00:54:24;;;;;;;;;;;;;;;-144.99;87.32;52472.56;5472442;26;19935;-66
2024/04/23 00:56:50;;;;;;;;;;;;;;;-144.99;87.41;52490.91;5477848;26;19936;-64
2024/04/23 00:59:19;;;;;;;;;;;;;;;-144.99;87.26;52472.56;5459425;26;19955;-68
2024/04/23 01:01:49;;;;;;;;;;;;;;;-144.99;87.49;52470.50;5460729;26;19931;-65
2024/04/23 01:04:17;;;;;;;;;;;;;;;-144.99;87.65;52488.84;5480362;26;20394;-65
2024/04/23 01:06:43;;;;;;;;;;;;;;;-144.99;88.06;52497.00;5466843;26;20368;-65
2024/04/23 01:09:12;;;;;;;;;;;;;;;-144.99;88.14;52513.31;5463727;26;19929;-65
2024/04/23 01:11:38;;;;;;;;;;;;;;;-144.99;87.98;52488.84;5470527;26;19951;-65
2024/04/23 01:14:07;;;;;;;;;;;;;;;-144.99;88.17;52505.16;5472447;26;20430;-65
2024/04/23 01:16:35;;;;;;;;;;;;;;;-144.99;88.25;52545.94;5479847;26;20307;-65
2024/04/23 01:19:08;;;;;;;;;;;;;;;-144.99;87.63;52490.91;5480882;26;19939;-64
2024/04/23 01:21:38;;;;;;;;;;;;;;;-144.99;87.26;52476.63;5466313;26;19980;-64
2024/04/23 01:24:12;;;;;;;;;;;;;;;-144.99;87.00;52501.09;5466072;26;19964;-64
2024/04/23 01:26:41;;;;;;;;;;;;;;;-144.99;86.63;52480.72;5473496;26;19959;-64
2024/04/23 01:29:10;;;;;;;;;;;;;;;-144.99;86.83;52476.63;5481620;26;20442;-64
2024/04/23 01:31:36;;;;;;;;;;;;;;;-144.99;86.61;52505.16;5458824;26;19977;-64
2024/04/23 01:34:05;;;;;;;;;;;;;;;-144.99;86.44;52464.41;5478532;26;19928;-64
2024/04/23 01:36:31;;;;;;;;;;;;;;;-144.99;86.23;52472.56;5475103;26;19935;-64
2024/04/23 01:39:00;;;;;;;;;;;;;;;-144.99;86.15;52501.09;5479670;26;19928;-64
2024/04/23 01:41:26;;;;;;;;;;;;;;;-144.99;85.95;52480.72;5457253;26;20400;-64
2024/04/23 01:43:59;;;;;;;;;;;;;;;-144.99;85.68;52460.31;5458643;26;19932;-64
2024/04/23 01:46:25;;;;;;;;;;;;;;;-144.99;85.22;52501.09;5463933;26;19936;-64
2024/04/23 01:49:12;;;;;;;;;;;;;;;-144.99;85.11;52521.47;5479514;26;20284;-64
2024/04/23 01:51:38;;;;;;;;;;;;;;;-144.99;84.83;52543.91;5468788;26;19928;-65
2024/04/23 01:54:07;;;;;;;;;;;;;;;-144.99;84.72;52478.66;5464213;26;19983;-65
2024/04/23 01:56:33;;;;;;;;;;;;;;;-144.99;84.54;52464.41;5480396;26;19932;-64
2024/04/23 01:59:04;;;;;;;;;;;;;;;-144.99;84.50;52513.31;5475450;26;20031;-64
2024/04/23 02:01:31;;;;;;;;;;;;;;;-144.99;84.29;52488.84;5480861;26;20515;-64
2024/04/23 02:04:00;;;;;;;;;;;;;;;-144.99;84.03;52492.94;5450836;26;19944;-63
2024/04/23 02:06:27;;;;;;;;;;;;;;;-144.99;84.63;52464.41;5480783;26;19928;-63
2024/04/23 02:08:55;;;;;;;;;;;;;;;-144.99;84.68;52464.41;5468906;26;19928;-63
2024/04/23 02:11:21;;;;;;;;;;;;;;;-144.99;84.82;52521.47;5474926;26;19928;-60
2024/04/23 02:13:50;;;;;;;;;;;;;;;-144.99;84.68;52439.94;5454596;26;20312;-60
2024/04/23 02:16:19;;;;;;;;;;;;;;;-144.99;84.78;52476.63;5476084;26;19932;-60
2024/04/23 02:18:47;;;;;;;;;;;;;;;-144.99;85.49;52476.63;5469784;26;20237;-62
2024/04/23 02:21:13;;;;;;;;;;;;;;;-144.99;85.82;52468.47;5480094;26;19973;-62
2024/04/23 02:23:42;;;;;;;;;;;;;;;-144.99;85.84;52505.16;5462831;26;19940;-60
2024/04/23 02:26:07;;;;;;;;;;;;;;;-144.99;85.96;52497.00;5455814;26;19928;-60
2024/04/23 02:28:36;;;;;;;;;;;;;;;-144.99;86.30;52525.56;5478863;26;19934;-60
2024/04/23 02:31:02;;;;;;;;;;;;;;;-144.99;86.65;52476.63;5473169;26;20319;-60
2024/04/23 02:33:36;;;;;;;;;;;;;;;-144.99;86.88;52470.50;5469660;26;19935;-60
2024/04/23 02:36:02;;;;;;;;;;;;;;;-144.99;86.94;52480.72;5454325;26;19932;-60
2024/04/23 02:38:30;;;;;;;;;;;;;;;-144.99;86.99;52456.25;5478227;26;20398;-61
2024/04/23 02:40:56;;;;;;;;;;;;;;;-144.99;87.18;52468.47;5466785;26;20038;-60
2024/04/23 02:43:25;;;;;;;;;;;;;;;-144.99;87.71;52497.00;5467681;26;19940;-59
2024/04/23 02:45:50;;;;;;;;;;;;;;;-144.99;87.99;52472.56;5456736;26;20413;-60
2024/04/23 02:48:19;;;;;;;;;;;;;;;-144.99;88.16;52501.09;5465997;26;20251;-60
2024/04/23 02:50:47;;;;;;;;;;;;;;;-144.99;87.99;52456.25;5461612;26;20483;-60
2024/04/23 02:53:16;;;;;;;;;;;;;;;-144.99;87.94;52490.91;5464880;26;19943;-60
2024/04/23 02:55:42;;;;;;;;;;;;;;;-144.99;87.49;52488.84;5472191;26;20340;-60
2024/04/23 02:58:10;;;;;;;;;;;;;;;-144.99;87.68;52480.72;5461944;26;19928;-61
2024/04/23 03:00:36;;;;;;;;;;;;;;;-144.99;87.85;52478.66;5478650;26;20039;-60
2024/04/23 03:03:05;;;;;;;;;;;;;;;-144.99;88.13;52468.47;5474042;26;19938;-60
2024/04/23 03:05:31;;;;;;;;;;;;;;;-144.99;88.48;52456.25;5472533;26;19940;-59
2024/04/23 03:08:02;;;;;;;;;;;;;;;-144.99;88.44;52474.59;5454321;26;19939;-59
2024/04/23 03:10:28;;;;;;;;;;;;;;;-144.99;88.00;52476.63;5476288;26;20348;-60
2024/04/23 03:12:56;;;;;;;;;;;;;;;-144.99;88.83;52513.31;5472473;26;19960;-59
2024/04/23 03:15:22;;;;;;;;;;;;;;;-144.99;88.31;52472.56;5463343;26;19936;-60
2024/04/23 03:17:51;;;;;;;;;;;;;;;-144.99;88.05;52501.09;5476900;26;19980;-60
2024/04/23 03:20:17;;;;;;;;;;;;;;;-144.99;88.16;52515.34;5476265;26;19928;-65
2024/04/23 03:22:46;;;;;;;;;;;;;;;-144.99;87.77;52501.09;5473332;26;19928;-65
2024/04/23 03:25:14;;;;;;;;;;;;;;;-144.99;87.60;52537.78;5460338;26;20015;-66
2024/04/23 03:27:43;;;;;;;;;;;;;;;-144.99;87.29;52460.31;5456062;26;19939;-63
2024/04/23 03:30:09;;;;;;;;;;;;;;;-144.99;87.54;52497.00;5476196;26;19928;-67
2024/04/23 03:32:38;;;;;;;;;;;;;;;-144.99;87.63;52531.66;5472979;26;20000;-68
2024/04/23 03:35:04;;;;;;;;;;;;;;;-144.99;88.21;52476.63;5467436;26;20243;-68
2024/04/23 03:37:32;;;;;;;;;;;;;;;-144.99;88.16;52497.00;5451714;26;20269;-67
2024/04/23 03:40:01;;;;;;;;;;;;;;;-144.99;87.85;52507.19;5459191;26;19928;-64
2024/04/23 03:42:32;;;;;;;;;;;;;;;-144.99;88.16;52480.72;5469476;26;20426;-64
2024/04/23 03:45:00;;;;;;;;;;;;;;;-144.99;88.13;52492.94;5468394;26;19943;-64
2024/04/23 03:47:31;;;;;;;;;;;;;;;-144.99;88.42;52460.31;5462264;26;19928;-65
2024/04/23 03:49:57;;;;;;;;;;;;;;;-144.99;88.16;52482.75;5470269;26;20314;-65
2024/04/23 03:52:26;;;;;;;;;;;;;;;-144.99;88.32;52478.66;5462238;26;20001;-66
2024/04/23 03:54:52;;;;;;;;;;;;;;;-144.99;88.56;52484.78;5456618;26;19932;-64
2024/04/23 03:57:20;;;;;;;;;;;;;;;-144.99;88.84;52456.25;5472400;26;19965;-63
2024/04/23 03:59:49;;;;;;;;;;;;;;;-144.99;88.81;52488.84;5458751;26;20428;-64
2024/04/23 04:07:46;;;;;;;;;;;;;;;-144.99;88.27;52525.56;5466004;26;19939;-65
2024/04/23 04:10:12;;;;;;;;;;;;;;;-144.99;88.09;52513.31;5461026;26;19954;-64
2024/04/23 04:12:41;;;;;;;;;;;;;;;-144.99;88.09;52476.63;5477431;26;19927;-65
2024/04/23 04:15:12;;;;;;;;;;;;;;;-144.99;87.80;52488.84;5472003;26;19928;-65
2024/04/23 04:17:38;;;;;;;;;;;;;;;-144.99;87.88;52476.63;5459316;26;19928;-64
2024/04/23 04:20:08;;;;;;;;;;;;;;;-144.99;87.60;52470.50;5449506;26;19928;-63
2024/04/23 04:22:33;;;;;;;;;;;;;;;-144.99;87.64;52480.72;5473414;26;19936;-63
2024/04/23 04:25:02;;;;;;;;;;;;;;;-144.99;87.39;52472.56;5469194;26;19934;-64
2024/04/23 04:27:28;;;;;;;;;;;;;;;-144.99;87.23;52476.63;5477475;26;20206;-63
2024/04/23 04:29:56;;;;;;;;;;;;;;;-144.99;87.30;52460.31;5466308;26;20181;-63
2024/04/23 04:32:25;;;;;;;;;;;;;;;-144.99;87.03;52444.03;5465495;26;20019;-64
2024/04/23 04:34:53;;;;;;;;;;;;;;;-144.99;86.86;52409.38;5464164;26;19928;-64
2024/04/23 04:37:19;;;;;;;;;;;;;;;-144.99;86.58;52460.31;5473789;26;19932;-65
2024/04/23 04:39:48;;;;;;;;;;;;;;;-144.99;86.44;52476.63;5457720;26;20001;-65
2024/04/23 04:42:14;;;;;;;;;;;;;;;-144.99;86.20;52476.63;5470692;26;20069;-64
2024/04/23 04:44:42;;;;;;;;;;;;;;;-144.99;86.30;52456.25;5477331;26;20394;-64
2024/04/23 04:47:08;;;;;;;;;;;;;;;-144.99;86.91;52484.78;5484691;26;20004;-62
2024/04/23 04:49:39;;;;;;;;;;;;;;;-144.99;86.95;52480.72;5477757;26;19958;-63
2024/04/23 04:52:05;;;;;;;;;;;;;;;-144.99;87.83;52456.25;5474394;26;19932;-63
2024/04/23 04:54:34;;;;;;;;;;;;;;;-144.99;88.10;52480.72;5475115;26;21385;-63
2024/04/23 04:57:00;;;;;;;;;;;;;;;-144.99;88.89;52478.66;5489072;26;19971;-63
2024/04/23 04:59:29;;;;;;;;;;;;;;;-144.99;88.65;52464.41;5489429;26;20501;-64
2024/04/23 05:01:54;;;;;;;;;;;;;;;-144.99;88.76;52501.09;5481696;26;19987;-64
2024/04/23 05:04:23;;;;;;;;;;;;;;;-144.99;88.67;52423.63;5475618;26;20288;-64
2024/04/23 05:06:52;;;;;;;;;;;;;;;-144.99;88.83;52470.50;5486500;26;19927;-64
2024/04/23 05:09:20;;;;;;;;;;;;;;;-144.99;87.76;52435.88;5481861;26;19939;-64
2024/04/23 05:11:46;;;;;;;;;;;;;;;-144.99;85.63;52444.03;5476390;21;19932;-67
2024/04/23 05:14:15;;;;;;;;;;;;;;;-144.99;84.82;52435.88;5360218;26;19942;-68
2024/04/23 05:16:43;;;;;;;;;;;;;;;-144.99;84.73;52399.19;5379237;26;20251;-68
2024/04/23 05:19:12;;;;;;;;;;;;;;;-144.99;84.82;52439.94;5375437;26;19933;-68
2024/04/23 05:21:38;;;;;;;;;;;;;;;-144.99;83.24;52433.81;5370286;26;20010;-67
2024/04/23 05:24:09;;;;;;;;;;;;;;;-144.99;82.20;52452.16;5371704;26;21067;-68
2024/04/23 05:26:35;;;;;;;;;;;;;;;-144.99;81.64;52464.41;5361534;26;19930;-67
2024/04/23 05:29:04;;;;;;;;;;;;;;;-144.99;80.41;52452.16;5354247;26;19984;-69
2024/04/23 05:34:17;;;;;;;;;;;;;;;-144.99;77.71;52433.81;5368374;26;19964;-70
2024/04/23 05:36:45;;;;;;;;;;;;;;;-144.99;77.28;52409.38;5372966;26;20374;-70
2024/04/23 05:39:16;;;;;;;;;;;;;;;-144.99;76.79;52456.25;5369806;26;19930;-69
2024/04/23 05:41:45;;;;;;;;;;;;;;;-144.99;76.63;52454.22;5370289;26;20030;-73
2024/04/23 05:44:14;;;;;;;;;;;;;;;-144.99;76.02;52454.22;5381798;26;19972;-74
2024/04/23 05:46:42;;;;;;;;;;;;;;;-144.99;76.08;52456.25;5363862;26;19930;-73
2024/04/23 05:49:27;;;;;;;;;;;;;;;-144.99;76.02;52448.09;4636839;26;10000652;-74
2024/04/23 05:52:14;;;;;;;;;;;;;;;-144.99;75.64;52452.16;5392292;26;20182;-72
2024/04/23 05:55:01;;;;;;;;;;;;;;;-144.99;75.85;52441.97;5390938;26;19930;-73
2024/04/23 05:57:32;;;;;;;;;;;;;;;-144.99;76.41;52456.25;5362023;26;19930;-73
2024/04/23 05:59:58;;;;;;;;;;;;;;;-144.99;76.55;52439.94;5371618;26;20346;-73
2024/04/23 06:02:27;;;;;;;;;;;;;;;-144.99;76.17;52448.09;5392488;26;19929;-73
2024/04/23 06:04:52;;;;;;;;;;;;;;;-144.99;76.36;52446.06;5401401;26;19930;-72
2024/04/23 06:07:21;;;;;;;;;;;;;;;-144.99;76.45;52470.50;5387709;26;20336;-73
2024/04/23 06:09:47;;;;;;;;;;;;;;;-144.99;76.98;52425.66;5360604;26;20439;-72
2024/04/23 06:12:16;;;;;;;;;;;;;;;-144.99;76.80;52454.22;5387861;26;19938;-75
2024/04/23 06:14:44;;;;;;;;;;;;;;;-144.99;76.73;52456.25;5394870;26;20015;-72
2024/04/23 06:17:22;;;;;;;;;;;;;;;-144.99;76.88;52460.31;5406692;26;19953;-73
2024/04/23 06:19:51;;;;;;;;;;;;;;;-144.99;77.02;52472.56;5365058;26;19941;-73
2024/04/23 06:22:21;;;;;;;;;;;;;;;-144.99;77.34;52462.34;5387522;26;19940;-74
2024/04/23 06:24:47;;;;;;;;;;;;;;;-144.99;77.89;52452.16;5373267;26;20129;-73
2024/04/23 06:27:17;;;;;;;;;;;;;;;-144.99;78.20;52456.25;5370343;26;19964;-73
2024/04/23 06:29:48;;;;;;;;;;;;;;;-144.99;78.43;52452.16;5368676;26;19930;-72
2024/04/23 06:32:14;;;;;;;;;;;;;;;-144.99;78.27;52435.88;5387283;26;19933;-74
2024/04/23 06:34:42;;;;;;;;;;;;;;;-144.99;78.07;52437.91;5392329;26;20407;-73
2024/04/23 06:37:08;;;;;;;;;;;;;;;-144.99;78.04;52452.16;5382557;26;20368;-73
2024/04/23 06:39:37;;;;;;;;;;;;;;;-144.99;78.06;52427.72;5372844;26;19999;-73
2024/04/23 06:42:03;;;;;;;;;;;;;;;-144.99;78.08;52415.47;5374126;26;20248;-73
2024/04/23 06:44:31;;;;;;;;;;;;;;;-144.99;78.40;52413.44;5384967;26;20283;-73
2024/04/23 06:47:00;;;;;;;;;;;;;;;-144.99;77.62;52407.31;5357391;26;19934;-72
2024/04/23 06:49:29;;;;;;;;;;;;;;;-144.99;76.93;52413.44;5392959;26;19998;-73
2024/04/23 06:51:55;;;;;;;;;;;;;;;-144.99;76.13;52427.72;5367437;26;19929;-73
2024/04/23 06:54:23;;;;;;;;;;;;;;;-144.99;75.62;52372.69;5366158;26;20707;-72
2024/04/23 06:56:49;;;;;;;;;;;;;;;-144.99;75.35;52415.47;5371775;26;19930;-74
2024/04/23 06:59:18;;;;;;;;;;;;;;;-144.99;75.90;52425.66;5370968;26;19995;-74
2024/04/23 07:01:44;;;;;;;;;;;;;;;-144.99;76.46;52374.72;5384556;26;19932;-74
2024/04/23 07:04:15;;;;;;;;;;;;;;;-144.99;75.48;52399.19;5352138;26;20722;-74
2024/04/23 07:06:41;;;;;;;;;;;;;;;-144.99;75.47;52423.63;5380840;26;19930;-72
2024/04/23 07:09:10;;;;;;;;;;;;;;;-144.99;74.85;52403.25;5373161;26;19998;-72
2024/04/23 07:11:36;;;;;;;;;;;;;;;-144.99;75.74;52395.09;5386298;26;19929;-72
2024/04/23 07:14:05;;;;;;;;;;;;;;;-144.99;76.36;52431.78;5360374;26;20007;-72
2024/04/23 07:16:31;;;;;;;;;;;;;;;-144.99;77.30;52419.56;5380876;26;20339;-72
2024/04/23 07:19:00;;;;;;;;;;;;;;;-144.99;77.14;52431.78;5380472;26;19929;-72
2024/04/23 07:21:28;;;;;;;;;;;;;;;-144.99;78.02;52423.63;5384933;26;19929;-73
2024/04/23 07:24:02;;;;;;;;;;;;;;;-144.99;77.90;52466.44;5366370;26;20026;-74
2024/04/23 07:26:27;;;;;;;;;;;;;;;-144.99;77.67;52452.16;5377140;26;20535;-73
2024/04/23 07:28:56;;;;;;;;;;;;;;;-144.99;78.09;52427.72;5375774;26;20022;-72
2024/04/23 07:31:22;;;;;;;;;;;;;;;-144.99;78.45;52431.78;5380186;26;19932;-72
2024/04/23 07:33:50;;;;;;;;;;;;;;;-144.99;78.02;52431.78;5371841;26;20010;-72
2024/04/23 07:36:16;;;;;;;;;;;;;;;-144.99;78.52;52415.47;5389088;26;19930;-73
2024/04/23 07:38:47;;;;;;;;;;;;;;;-144.99;77.49;52435.88;5392947;26;19995;-72
2024/04/23 07:41:14;;;;;;;;;;;;;;;-144.99;76.89;52386.94;5395309;26;19930;-73
2024/04/23 07:43:43;;;;;;;;;;;;;;;-144.99;75.74;52435.88;5400474;26;20248;-72
2024/04/23 07:46:09;;;;;;;;;;;;;;;-144.99;74.55;52407.31;5364232;26;19935;-73
2024/04/23 07:48:38;;;;;;;;;;;;;;;-144.99;74.40;52433.81;5383179;26;19941;-74
2024/04/23 07:51:06;;;;;;;;;;;;;;;-144.99;73.54;52411.41;5393177;26;19929;-72
2024/04/23 07:53:33;;;;;;;;;;;;;;;-144.99;71.42;52378.78;5394243;26;20400;-72
2024/04/23 07:56:04;;;;;;;;;;;;;;;-144.99;70.01;52399.19;5375970;26;19934;-75
2024/04/23 07:58:30;;;;;;;;;;;;;;;-144.99;68.93;52382.88;5354295;26;19930;-72
2024/04/23 08:00:58;;;;;;;;;;;;;;;-144.99;69.07;52403.25;5380993;26;19940;-72
2024/04/23 08:03:27;;;;;;;;;;;;;;;-144.99;68.45;52395.09;5362895;26;19937;-73
2024/04/23 08:05:54;;;;;;;;;;;;;;;-144.99;68.26;52421.59;5390581;26;19929;-74
2024/04/23 08:08:22;;;;;;;;;;;;;;;-144.99;68.69;52354.34;5367002;26;20375;-72
2024/04/23 08:10:48;;;;;;;;;;;;;;;-144.99;68.18;52386.94;5356324;26;20388;-75
2024/04/23 08:13:22;;;;;;;;;;;;;;;-144.99;67.42;52362.50;5378539;26;19978;-73
2024/04/23 08:15:48;;;;;;;;;;;;;;;-144.99;66.84;52386.94;5373721;26;20372;-74
2024/04/23 08:18:17;;;;;;;;;;;;;;;-144.99;66.86;52421.59;5376331;26;19938;-73
2024/04/23 08:20:42;;;;;;;;;;;;;;;-144.99;67.29;52415.47;5377930;26;20436;-73
2024/04/23 08:23:11;;;;;;;;;;;;;;;-144.99;67.56;52393.06;5384662;26;19930;-73
2024/04/23 08:25:40;;;;;;;;;;;;;;;-144.99;67.07;52403.25;5388659;26;19948;-74
2024/04/23 08:28:06;;;;;;;;;;;;;;;-144.99;66.02;52397.13;5374348;26;19929;-73
2024/04/23 08:30:37;;;;;;;;;;;;;;;-144.99;65.51;52384.91;5374285;26;19929;-73
2024/04/23 08:33:03;;;;;;;;;;;;;;;-144.99;65.16;52419.56;5372476;26;19935;-73
2024/04/23 08:35:32;;;;;;;;;;;;;;;-144.99;64.70;52382.88;5374106;26;19930;-73
2024/04/23 08:38:00;;;;;;;;;;;;;;;-144.99;64.51;52382.88;5360783;26;19998;-72
2024/04/23 08:40:26;;;;;;;;;;;;;;;-144.99;64.71;52395.09;5373787;26;19930;-72
2024/04/23 08:42:55;;;;;;;;;;;;;;;-144.99;63.40;52415.47;5355554;26;19930;-74
2024/04/23 08:45:22;;;;;;;;;;;;;;;-144.99;63.93;52382.88;5392361;26;19978;-73
2024/04/23 08:47:54;;;;;;;;;;;;;;;-144.99;62.97;52378.78;5388180;26;20008;-76
2024/04/23 08:50:21;;;;;;;;;;;;;;;-144.99;62.03;52376.75;5398788;26;20024;-73
2024/04/23 08:52:51;;;;;;;;;;;;;;;-144.99;62.26;52411.41;5367106;26;19937;-73
2024/04/23 08:55:17;;;;;;;;;;;;;;;-144.99;61.92;52391.03;5368371;26;19929;-73
2024/04/23 08:57:46;;;;;;;;;;;;;;;-144.99;61.08;52362.50;5376290;26;20371;-73
2024/04/23 09:00:13;;;;;;;;;;;;;;;-144.99;60.50;52360.44;5397184;26;19929;-73
2024/04/23 09:02:42;;;;;;;;;;;;;;;-144.99;60.70;52395.09;5389895;26;19937;-72
2024/04/23 09:05:11;;;;;;;;;;;;;;;-144.99;60.78;52354.34;5369814;26;19937;-75
2024/04/23 09:07:40;;;;;;;;;;;;;;;-144.99;59.87;52368.59;5374910;26;19941;-73
2024/04/23 09:10:07;;;;;;;;;;;;;;;-144.99;59.34;52372.69;5378403;26;19971;-73
2024/04/23 09:12:36;;;;;;;;;;;;;;;-144.99;59.67;52346.19;5359810;26;20436;-73
2024/04/23 09:15:03;;;;;;;;;;;;;;;-144.99;59.47;52366.56;5377680;26;20442;-73
2024/04/23 09:17:33;;;;;;;;;;;;;;;-144.99;59.59;52342.09;5388819;26;19929;-73
2024/04/23 09:20:00;;;;;;;;;;;;;;;-144.99;57.74;52362.50;5392431;26;19937;-74
2024/04/23 09:22:31;;;;;;;;;;;;;;;-144.99;57.85;52338.03;5383860;26;19999;-74
2024/04/23 09:25:01;;;;;;;;;;;;;;;-144.99;55.70;52391.03;5378869;26;19998;-74
2024/04/23 09:27:30;;;;;;;;;;;;;;;-144.99;56.58;52362.50;5391986;26;19962;-74
2024/04/23 09:29:56;;;;;;;;;;;;;;;-144.99;56.38;52358.41;5400212;26;19935;-73
2024/04/23 09:32:25;;;;;;;;;;;;;;;-144.99;57.35;52360.44;5381880;26;19946;-74
2024/04/23 09:34:54;;;;;;;;;;;;;;;-144.99;57.85;52329.88;5387362;26;19952;-74
2024/04/23 09:37:23;;;;;;;;;;;;;;;-144.99;57.45;52346.19;5356156;26;19941;-73
2024/04/23 09:39:51;;;;;;;;;;;;;;;-144.99;57.80;52370.63;5375880;26;19930;-75
2024/04/23 09:42:24;;;;;;;;;;;;;;;-144.99;58.13;52342.09;5383006;26;19929;-74
2024/04/23 09:44:50;;;;;;;;;;;;;;;-144.99;58.38;52321.72;5368965;26;19930;-76
2024/04/23 09:47:19;;;;;;;;;;;;;;;-144.99;58.46;52358.41;5385121;26;19930;-74
2024/04/23 09:49:46;;;;;;;;;;;;;;;-144.99;58.41;52368.59;5381353;26;19957;-74
2024/04/23 09:52:14;;;;;;;;;;;;;;;-144.99;58.02;52350.25;5380168;26;20044;-74
2024/04/23 09:54:42;;;;;;;;;;;;;;;-144.99;58.64;52366.56;4999953;26;10000420;-74
2024/04/23 09:57:13;;;;;;;;;;;;;;;-144.99;59.04;52352.28;5377158;26;19929;-73
2024/04/23 09:59:39;;;;;;;;;;;;;;;-144.99;58.49;52329.88;5384867;26;20070;-74
2024/04/23 10:02:12;;;;;;;;;;;;;;;-144.99;57.41;52354.34;5374828;26;19940;-74
2024/04/23 10:04:39;;;;;;;;;;;;;;;-144.99;57.47;52362.50;5381834;26;20014;-74
2024/04/23 10:07:10;;;;;;;;;;;;;;;-144.99;56.65;52325.81;5388692;26;19999;-74
2024/04/23 10:09:36;;;;;;;;;;;;;;;-144.99;57.60;52329.88;5407016;26;19929;-74
2024/04/23 10:12:07;;;;;;;;;;;;;;;-144.99;56.72;52366.56;5397249;26;20375;-74
2024/04/23 10:14:41;;;;;;;;;;;;;;;-144.99;55.89;52399.19;5380381;26;19929;-75
2024/04/23 10:17:12;;;;;;;;;;;;;;;-144.99;56.80;52358.41;5374754;26;19929;-73
2024/04/23 10:19:38;;;;;;;;;;;;;;;-144.99;57.01;52366.56;5395037;26;19945;-73
2024/04/23 10:22:07;;;;;;;;;;;;;;;-144.99;57.34;52395.09;5372384;26;19936;-75
2024/04/23 10:24:33;;;;;;;;;;;;;;;-144.99;57.91;52391.03;5395890;26;20430;-74
2024/04/23 10:27:05;;;;;;;;;;;;;;;-144.99;58.08;52403.25;5377312;26;19929;-74
2024/04/23 10:29:32;;;;;;;;;;;;;;;-144.99;58.70;52399.19;5372612;26;19953;-75
2024/04/23 10:32:03;;;;;;;;;;;;;;;-144.99;58.80;52425.66;5388023;26;19930;-74
2024/04/23 10:34:30;;;;;;;;;;;;;;;-144.99;59.19;52435.88;5399531;26;19993;-74
2024/04/23 10:36:59;;;;;;;;;;;;;;;-144.99;59.63;52419.56;5365554;26;19930;-73
2024/04/23 10:39:25;;;;;;;;;;;;;;;-144.99;59.04;52403.25;5377556;26;19944;-73
2024/04/23 10:41:54;;;;;;;;;;;;;;;-144.99;58.25;52415.47;5385542;26;19945;-73
2024/04/23 10:44:21;;;;;;;;;;;;;;;-144.99;58.29;52415.47;5387414;26;19933;-73
2024/04/23 10:46:50;;;;;;;;;;;;;;;-144.99;57.62;52403.25;5367756;26;20470;-73
2024/04/23 10:49:21;;;;;;;;;;;;;;;-144.99;57.35;52397.13;5387499;26;20329;-73
2024/04/23 10:51:50;;;;;;;;;;;;;;;-144.99;57.04;52395.09;5385379;26;19930;-74
2024/04/23 10:54:19;;;;;;;;;;;;;;;-144.99;57.15;52407.31;5377673;26;20236;-74
2024/04/23 10:56:58;;;;;;;;;;;;;;;-144.99;57.44;52395.09;5394471;26;19937;-75
2024/04/23 10:59:23;;;;;;;;;;;;;;;-144.99;57.26;52439.94;5374140;26;19965;-75
2024/04/23 11:01:59;;;;;;;;;;;;;;;-144.99;57.44;52374.72;5373123;26;20346;-75
2024/04/23 11:04:33;;;;;;;;;;;;;;;-144.99;57.94;52399.19;5373336;26;19961;-75
2024/04/23 11:07:05;;;;;;;;;;;;;;;-144.99;57.80;52378.78;5367748;26;19929;-74
2024/04/23 11:09:34;;;;;;;;;;;;;;;-144.99;57.19;52382.88;5361623;26;19937;-74
2024/04/23 11:12:02;;;;;;;;;;;;;;;-144.99;56.87;52409.38;5392078;26;20295;-75
2024/04/23 11:14:32;;;;;;;;;;;;;;;-144.99;56.96;52382.88;5399982;26;19929;-74
2024/04/23 11:17:01;;;;;;;;;;;;;;;-144.99;56.77;52393.06;5377880;26;19929;-74
2024/04/23 11:19:37;;;;;;;;;;;;;;;-144.99;57.08;52364.53;5372477;26;19930;-74
2024/04/23 11:22:09;;;;;;;;;;;;;;;-144.99;56.20;52378.78;5372576;26;19937;-75
2024/04/23 11:24:40;;;;;;;;;;;;;;;-144.99;56.04;52407.31;5379335;26;20541;-75
2024/04/23 11:27:09;;;;;;;;;;;;;;;-144.99;56.05;52391.03;5367036;26;19929;-74
2024/04/23 11:29:37;;;;;;;;;;;;;;;-144.99;55.51;52346.19;5383970;26;20258;-75
2024/04/23 11:32:06;;;;;;;;;;;;;;;-144.99;55.35;52303.38;5372264;26;19929;-74
2024/04/23 11:34:32;;;;;;;;;;;;;;;-144.99;54.21;52215.75;5374452;26;19929;-74
2024/04/23 11:37:04;;;;;;;;;;;;;;;-144.99;53.48;52299.31;5362253;26;20370;-75
2024/04/23 11:39:31;;;;;;;;;;;;;;;-144.99;52.50;52297.25;5372113;26;19929;-75
2024/04/23 11:42:00;;;;;;;;;;;;;;;-144.99;52.48;52319.69;5359291;26;20337;-77
2024/04/23 11:44:27;;;;;;;;;;;;;;;-144.99;53.00;52333.94;5402892;26;20240;-75
2024/04/23 11:46:56;;;;;;;;;;;;;;;-144.99;53.22;52333.94;5358672;26;20372;-75
2024/04/23 11:49:24;;;;;;;;;;;;;;;-144.99;54.03;52366.56;5388377;26;20335;-75
2024/04/23 11:51:54;;;;;;;;;;;;;;;-144.99;53.85;52376.75;5375367;26;19933;-75
2024/04/23 11:54:24;;;;;;;;;;;;;;;-144.99;54.46;52374.72;5380080;26;19929;-75
2024/04/23 11:56:53;;;;;;;;;;;;;;;-144.99;55.04;52393.06;5380962;26;19957;-75
2024/04/23 11:59:22;;;;;;;;;;;;;;;-144.99;55.50;52435.88;5370817;26;19929;-75
2024/04/23 12:01:51;;;;;;;;;;;;;;;-144.99;55.05;52399.19;5403199;26;20367;-75
2024/04/23 12:04:19;;;;;;;;;;;;;;;-144.99;55.83;52399.19;5395393;26;19931;-73
2024/04/23 12:06:51;;;;;;;;;;;;;;;-144.99;56.42;52419.56;5385071;26;19945;-75
2024/04/23 12:09:22;;;;;;;;;;;;;;;-144.99;56.47;52403.25;5363234;26;19929;-77
2024/04/23 12:11:50;;;;;;;;;;;;;;;-144.99;56.61;52374.72;5393197;26;20317;-74
2024/04/23 12:14:20;;;;;;;;;;;;;;;-144.99;56.97;52399.19;5393362;26;19930;-73
2024/04/23 12:16:46;;;;;;;;;;;;;;;-144.99;56.64;52384.91;5377239;26;19937;-75
2024/04/23 12:19:15;;;;;;;;;;;;;;;-144.99;56.43;52407.31;5386943;26;19937;-73
2024/04/23 12:21:42;;;;;;;;;;;;;;;-144.99;56.81;52407.31;5378646;26;19929;-73
2024/04/23 12:24:15;;;;;;;;;;;;;;;-144.99;56.40;52370.63;5399157;26;20288;-74
2024/04/23 12:26:41;;;;;;;;;;;;;;;-144.99;56.39;52415.47;5388587;26;19930;-73
2024/04/23 12:29:12;;;;;;;;;;;;;;;-144.99;55.97;52395.09;5379293;26;20270;-73
2024/04/23 12:31:38;;;;;;;;;;;;;;;-144.99;55.87;52370.63;5378561;26;19948;-74
2024/04/23 12:34:07;;;;;;;;;;;;;;;-144.99;56.01;52358.41;5374368;26;20376;-74
2024/04/23 12:36:33;;;;;;;;;;;;;;;-144.99;55.74;52372.69;5374850;26;19936;-75
2024/04/23 12:39:10;;;;;;;;;;;;;;;-144.99;55.19;52338.03;5358288;26;19937;-75